Meramec River (Missouri), Sullivan (07014500)

StateMissouriCurrentGood (491 cfs)
RiverMeramec RiverFlood - The river is flooding. Obstacles can be treacherous or deadly. The river should be avoided at this stage for casual trips and definitely for the inexperienced. Trips should be attempted only with protective gear and equipment.Flood(none)
Updated2019-10-14 2:00 (45 minutes ago)High - The river is high and potentially dangerous, especially for the young and / or inexperienced. Normal stream obstacles are sometimes difficult to navigate. Extended distances can be attempted, but canoe travel may not be advisable.High(none)
Discharge491 cfs (median: 360 cfs)Good - Conditions are ideal for a canoe or kayak. Boats typically will drag on fewer than one-quarter of riffles, if at all, and portages are unnecessary or rare. Normal float lengths can be attempted without a problem.Good200
Height2.31 feetLow - River is low but can still be floated. Some riffles are okay but most come with significant dragging and might need a portage. Float lengths should be reduced to accommodate low flow, dragging, and portages.Low(none)
TrendFalling (falling over 24 hours)Poor - River is too low to float comfortably. Most or all riffles will drag or must be portaged and some obstacles (such as slick shelf rock) cause undue problems. Avoid the river at this stage for casual paddling trips.Poor(none)
USGSExternal icon USGS Site for Sullivan (07014500)LocationExternal icon Google Maps

Trending Data

Plot Image
ObservationHeightDischargeMaximum
Discharge
Minimum
Discharge
Mean
Discharge
P05P10P20P25P50
(Median)
P75P80P90P95
2019-10-14 02:00 2.31 491 3100 (1950) 140 (1957) 545 200 237 285 299 360 470 582 962 2100
2019-10-14 01:30 2.32 496 3100 (1950) 140 (1957) 545 200 237 285 299 360 470 582 962 2100
2019-10-14 01:00 2.32 496 3100 (1950) 140 (1957) 545 200 237 285 299 360 470 582 962 2100
2019-10-14 00:30 2.32 496 3100 (1950) 140 (1957) 545 200 237 285 299 360 470 582 962 2100
2019-10-14 00:00 2.32 496 3100 (1950) 140 (1957) 545 200 237 285 299 360 470 582 962 2100
2019-10-13 23:30 2.33 501 10100 (1950) 140 (1957) 626 199 239 286 295 354 483 533 951 1930
2019-10-13 23:00 2.33 501 10100 (1950) 140 (1957) 626 199 239 286 295 354 483 533 951 1930
2019-10-13 22:30 2.34 506 10100 (1950) 140 (1957) 626 199 239 286 295 354 483 533 951 1930
2019-10-13 22:00 2.32 496 10100 (1950) 140 (1957) 626 199 239 286 295 354 483 533 951 1930
2019-10-13 21:30 2.33 501 10100 (1950) 140 (1957) 626 199 239 286 295 354 483 533 951 1930
2019-10-13 21:00 2.34 506 10100 (1950) 140 (1957) 626 199 239 286 295 354 483 533 951 1930
2019-10-13 20:30 2.33 501 10100 (1950) 140 (1957) 626 199 239 286 295 354 483 533 951 1930
2019-10-13 20:00 2.35 511 10100 (1950) 140 (1957) 626 199 239 286 295 354 483 533 951 1930
2019-10-13 19:30 2.35 511 10100 (1950) 140 (1957) 626 199 239 286 295 354 483 533 951 1930
2019-10-13 19:00 2.36 517 10100 (1950) 140 (1957) 626 199 239 286 295 354 483 533 951 1930
2019-10-13 18:30 2.36 517 10100 (1950) 140 (1957) 626 199 239 286 295 354 483 533 951 1930
2019-10-13 18:00 2.36 517 10100 (1950) 140 (1957) 626 199 239 286 295 354 483 533 951 1930
2019-10-13 17:30 2.36 517 10100 (1950) 140 (1957) 626 199 239 286 295 354 483 533 951 1930
2019-10-13 17:00 2.33 501 10100 (1950) 140 (1957) 626 199 239 286 295 354 483 533 951 1930
2019-10-13 16:30 2.36 517 10100 (1950) 140 (1957) 626 199 239 286 295 354 483 533 951 1930
2019-10-13 16:00 2.37 522 10100 (1950) 140 (1957) 626 199 239 286 295 354 483 533 951 1930
2019-10-13 15:30 2.37 522 10100 (1950) 140 (1957) 626 199 239 286 295 354 483 533 951 1930
2019-10-13 15:00 2.37 522 10100 (1950) 140 (1957) 626 199 239 286 295 354 483 533 951 1930
2019-10-13 14:30 2.37 522 10100 (1950) 140 (1957) 626 199 239 286 295 354 483 533 951 1930
2019-10-13 14:00 2.36 517 10100 (1950) 140 (1957) 626 199 239 286 295 354 483 533 951 1930
2019-10-13 13:30 2.34 506 10100 (1950) 140 (1957) 626 199 239 286 295 354 483 533 951 1930
2019-10-13 13:00 2.29 481 10100 (1950) 140 (1957) 626 199 239 286 295 354 483 533 951 1930
2019-10-13 12:30 2.29 481 10100 (1950) 140 (1957) 626 199 239 286 295 354 483 533 951 1930
2019-10-13 12:00 2.26 466 10100 (1950) 140 (1957) 626 199 239 286 295 354 483 533 951 1930
2019-10-13 11:30 2.29 481 10100 (1950) 140 (1957) 626 199 239 286 295 354 483 533 951 1930
2019-10-13 11:00 2.35 511 10100 (1950) 140 (1957) 626 199 239 286 295 354 483 533 951 1930
2019-10-13 10:30 2.34 506 10100 (1950) 140 (1957) 626 199 239 286 295 354 483 533 951 1930
2019-10-13 10:00 2.34 506 10100 (1950) 140 (1957) 626 199 239 286 295 354 483 533 951 1930
2019-10-13 09:30 2.34 506 10100 (1950) 140 (1957) 626 199 239 286 295 354 483 533 951 1930
2019-10-13 09:00 2.34 506 10100 (1950) 140 (1957) 626 199 239 286 295 354 483 533 951 1930
2019-10-13 08:30 2.34 506 10100 (1950) 140 (1957) 626 199 239 286 295 354 483 533 951 1930
2019-10-13 08:00 2.34 506 10100 (1950) 140 (1957) 626 199 239 286 295 354 483 533 951 1930
2019-10-13 07:30 2.34 506 10100 (1950) 140 (1957) 626 199 239 286 295 354 483 533 951 1930
2019-10-13 07:00 2.34 506 10100 (1950) 140 (1957) 626 199 239 286 295 354 483 533 951 1930
2019-10-13 06:30 2.34 506 10100 (1950) 140 (1957) 626 199 239 286 295 354 483 533 951 1930
2019-10-13 06:00 2.35 511 10100 (1950) 140 (1957) 626 199 239 286 295 354 483 533 951 1930
2019-10-13 05:30 2.35 511 10100 (1950) 140 (1957) 626 199 239 286 295 354 483 533 951 1930
2019-10-13 05:00 2.35 511 10100 (1950) 140 (1957) 626 199 239 286 295 354 483 533 951 1930
2019-10-13 04:30 2.35 511 10100 (1950) 140 (1957) 626 199 239 286 295 354 483 533 951 1930
2019-10-13 04:00 2.35 511 10100 (1950) 140 (1957) 626 199 239 286 295 354 483 533 951 1930
2019-10-13 03:30 2.35 511 10100 (1950) 140 (1957) 626 199 239 286 295 354 483 533 951 1930
2019-10-13 03:00 2.35 511 10100 (1950) 140 (1957) 626 199 239 286 295 354 483 533 951 1930
2019-10-13 02:30 2.34 506 10100 (1950) 140 (1957) 626 199 239 286 295 354 483 533 951 1930
2019-10-13 02:00 2.34 506 10100 (1950) 140 (1957) 626 199 239 286 295 354 483 533 951 1930
2019-10-13 01:30 2.34 506 10100 (1950) 140 (1957) 626 199 239 286 295 354 483 533 951 1930
2019-10-13 01:00 2.34 506 10100 (1950) 140 (1957) 626 199 239 286 295 354 483 533 951 1930
2019-10-13 00:30 2.34 506 10100 (1950) 140 (1957) 626 199 239 286 295 354 483 533 951 1930
2019-10-13 00:00 2.34 506 10100 (1950) 140 (1957) 626 199 239 286 295 354 483 533 951 1930
2019-10-12 23:30 2.33 501 11200 (1950) 140 (1957) 614 196 242 275 295 352 485 527 992 1420
2019-10-12 23:00 2.33 501 11200 (1950) 140 (1957) 614 196 242 275 295 352 485 527 992 1420
2019-10-12 22:30 2.32 496 11200 (1950) 140 (1957) 614 196 242 275 295 352 485 527 992 1420
2019-10-12 22:00 2.32 496 11200 (1950) 140 (1957) 614 196 242 275 295 352 485 527 992 1420
2019-10-12 21:30 2.31 491 11200 (1950) 140 (1957) 614 196 242 275 295 352 485 527 992 1420
2019-10-12 21:00 2.31 491 11200 (1950) 140 (1957) 614 196 242 275 295 352 485 527 992 1420
2019-10-12 20:30 2.30 486 11200 (1950) 140 (1957) 614 196 242 275 295 352 485 527 992 1420
2019-10-12 20:00 2.30 486 11200 (1950) 140 (1957) 614 196 242 275 295 352 485 527 992 1420
2019-10-12 19:30 2.29 481 11200 (1950) 140 (1957) 614 196 242 275 295 352 485 527 992 1420
2019-10-12 19:00 2.28 476 11200 (1950) 140 (1957) 614 196 242 275 295 352 485 527 992 1420
2019-10-12 18:30 2.28 476 11200 (1950) 140 (1957) 614 196 242 275 295 352 485 527 992 1420
2019-10-12 18:00 2.27 471 11200 (1950) 140 (1957) 614 196 242 275 295 352 485 527 992 1420
2019-10-12 17:30 2.27 471 11200 (1950) 140 (1957) 614 196 242 275 295 352 485 527 992 1420
2019-10-12 17:00 2.24 456 11200 (1950) 140 (1957) 614 196 242 275 295 352 485 527 992 1420
2019-10-12 16:30 2.24 456 11200 (1950) 140 (1957) 614 196 242 275 295 352 485 527 992 1420
2019-10-12 16:00 2.24 456 11200 (1950) 140 (1957) 614 196 242 275 295 352 485 527 992 1420
2019-10-12 15:30 2.24 456 11200 (1950) 140 (1957) 614 196 242 275 295 352 485 527 992 1420
2019-10-12 15:00 2.24 456 11200 (1950) 140 (1957) 614 196 242 275 295 352 485 527 992 1420
2019-10-12 14:30 2.23 451 11200 (1950) 140 (1957) 614 196 242 275 295 352 485 527 992 1420
2019-10-12 14:00 2.22 446 11200 (1950) 140 (1957) 614 196 242 275 295 352 485 527 992 1420
2019-10-12 13:30 2.22 446 11200 (1950) 140 (1957) 614 196 242 275 295 352 485 527 992 1420
2019-10-12 13:00 2.23 451 11200 (1950) 140 (1957) 614 196 242 275 295 352 485 527 992 1420
2019-10-12 12:30 2.20 437 11200 (1950) 140 (1957) 614 196 242 275 295 352 485 527 992 1420
2019-10-12 12:00 2.22 446 11200 (1950) 140 (1957) 614 196 242 275 295 352 485 527 992 1420
2019-10-12 11:30 2.19 432 11200 (1950) 140 (1957) 614 196 242 275 295 352 485 527 992 1420
2019-10-12 11:00 2.20 437 11200 (1950) 140 (1957) 614 196 242 275 295 352 485 527 992 1420
2019-10-12 10:30 2.21 441 11200 (1950) 140 (1957) 614 196 242 275 295 352 485 527 992 1420
2019-10-12 10:00 2.20 437 11200 (1950) 140 (1957) 614 196 242 275 295 352 485 527 992 1420
2019-10-12 09:30 2.21 441 11200 (1950) 140 (1957) 614 196 242 275 295 352 485 527 992 1420
2019-10-12 09:00 2.20 437 11200 (1950) 140 (1957) 614 196 242 275 295 352 485 527 992 1420
2019-10-12 08:30 2.20 437 11200 (1950) 140 (1957) 614 196 242 275 295 352 485 527 992 1420
2019-10-12 08:00 2.20 437 11200 (1950) 140 (1957) 614 196 242 275 295 352 485 527 992 1420
2019-10-12 07:30 2.20 437 11200 (1950) 140 (1957) 614 196 242 275 295 352 485 527 992 1420
2019-10-12 07:00 2.20 437 11200 (1950) 140 (1957) 614 196 242 275 295 352 485 527 992 1420
2019-10-12 06:30 2.20 437 11200 (1950) 140 (1957) 614 196 242 275 295 352 485 527 992 1420
2019-10-12 06:00 2.20 437 11200 (1950) 140 (1957) 614 196 242 275 295 352 485 527 992 1420
2019-10-12 05:30 2.20 437 11200 (1950) 140 (1957) 614 196 242 275 295 352 485 527 992 1420
2019-10-12 05:00 2.20 437 11200 (1950) 140 (1957) 614 196 242 275 295 352 485 527 992 1420
2019-10-12 04:30 2.20 437 11200 (1950) 140 (1957) 614 196 242 275 295 352 485 527 992 1420
2019-10-12 04:00 2.20 437 11200 (1950) 140 (1957) 614 196 242 275 295 352 485 527 992 1420
2019-10-12 03:30 2.20 437 11200 (1950) 140 (1957) 614 196 242 275 295 352 485 527 992 1420
2019-10-12 03:00 2.20 437 11200 (1950) 140 (1957) 614 196 242 275 295 352 485 527 992 1420
2019-10-12 02:30 2.20 437 11200 (1950) 140 (1957) 614 196 242 275 295 352 485 527 992 1420
2019-10-12 02:00 2.20 437 11200 (1950) 140 (1957) 614 196 242 275 295 352 485 527 992 1420
2019-10-12 01:30 2.20 437 11200 (1950) 140 (1957) 614 196 242 275 295 352 485 527 992 1420
2019-10-12 01:00 2.20 437 11200 (1950) 140 (1957) 614 196 242 275 295 352 485 527 992 1420
2019-10-12 00:30 2.20 437 11200 (1950) 140 (1957) 614 196 242 275 295 352 485 527 992 1420
2019-10-12 00:00 2.21 441 11200 (1950) 140 (1957) 614 196 242 275 295 352 485 527 992 1420
2019-10-11 23:30 2.20 437 7170 (2010) 138 (1957) 569 192 235 261 298 354 485 515 929 1400
2019-10-11 23:00 2.21 441 7170 (2010) 138 (1957) 569 192 235 261 298 354 485 515 929 1400
2019-10-11 22:30 2.21 441 7170 (2010) 138 (1957) 569 192 235 261 298 354 485 515 929 1400
2019-10-11 22:00 2.21 441 7170 (2010) 138 (1957) 569 192 235 261 298 354 485 515 929 1400
2019-10-11 21:30 2.21 441 7170 (2010) 138 (1957) 569 192 235 261 298 354 485 515 929 1400
2019-10-11 21:00 2.21 441 7170 (2010) 138 (1957) 569 192 235 261 298 354 485 515 929 1400
2019-10-11 20:30 2.21 441 7170 (2010) 138 (1957) 569 192 235 261 298 354 485 515 929 1400
2019-10-11 20:00 2.21 441 7170 (2010) 138 (1957) 569 192 235 261 298 354 485 515 929 1400
2019-10-11 19:30 2.21 441 7170 (2010) 138 (1957) 569 192 235 261 298 354 485 515 929 1400
2019-10-11 19:00 2.21 441 7170 (2010) 138 (1957) 569 192 235 261 298 354 485 515 929 1400
2019-10-11 18:30 2.21 441 7170 (2010) 138 (1957) 569 192 235 261 298 354 485 515 929 1400
2019-10-11 18:00 2.17 422 7170 (2010) 138 (1957) 569 192 235 261 298 354 485 515 929 1400
2019-10-11 17:30 2.12 399 7170 (2010) 138 (1957) 569 192 235 261 298 354 485 515 929 1400
2019-10-11 17:00 2.14 408 7170 (2010) 138 (1957) 569 192 235 261 298 354 485 515 929 1400
2019-10-11 16:30 2.13 403 7170 (2010) 138 (1957) 569 192 235 261 298 354 485 515 929 1400
2019-10-11 16:00 2.09 385 7170 (2010) 138 (1957) 569 192 235 261 298 354 485 515 929 1400
2019-10-11 15:30 2.09 385 7170 (2010) 138 (1957) 569 192 235 261 298 354 485 515 929 1400
2019-10-11 15:00 2.11 394 7170 (2010) 138 (1957) 569 192 235 261 298 354 485 515 929 1400
2019-10-11 14:30 2.11 394 7170 (2010) 138 (1957) 569 192 235 261 298 354 485 515 929 1400
2019-10-11 14:00 2.12 399 7170 (2010) 138 (1957) 569 192 235 261 298 354 485 515 929 1400
2019-10-11 13:30 2.12 399 7170 (2010) 138 (1957) 569 192 235 261 298 354 485 515 929 1400
2019-10-11 13:00 2.09 385 7170 (2010) 138 (1957) 569 192 235 261 298 354 485 515 929 1400
2019-10-11 12:30 2.13 403 7170 (2010) 138 (1957) 569 192 235 261 298 354 485 515 929 1400
2019-10-11 12:00 2.11 394 7170 (2010) 138 (1957) 569 192 235 261 298 354 485 515 929 1400
2019-10-11 11:30 2.10 389 7170 (2010) 138 (1957) 569 192 235 261 298 354 485 515 929 1400
2019-10-11 11:00 2.10 389 7170 (2010) 138 (1957) 569 192 235 261 298 354 485 515 929 1400
2019-10-11 10:30 2.13 403 7170 (2010) 138 (1957) 569 192 235 261 298 354 485 515 929 1400
2019-10-11 10:00 2.13 403 7170 (2010) 138 (1957) 569 192 235 261 298 354 485 515 929 1400
2019-10-11 09:30 2.13 403 7170 (2010) 138 (1957) 569 192 235 261 298 354 485 515 929 1400
2019-10-11 09:00 2.12 399 7170 (2010) 138 (1957) 569 192 235 261 298 354 485 515 929 1400
2019-10-11 08:30 2.15 413 7170 (2010) 138 (1957) 569 192 235 261 298 354 485 515 929 1400
2019-10-11 08:00 2.12 399 7170 (2010) 138 (1957) 569 192 235 261 298 354 485 515 929 1400
2019-10-11 07:30 2.16 417 7170 (2010) 138 (1957) 569 192 235 261 298 354 485 515 929 1400
2019-10-11 07:00 2.10 389 7170 (2010) 138 (1957) 569 192 235 261 298 354 485 515 929 1400
2019-10-11 06:30 2.07 376 7170 (2010) 138 (1957) 569 192 235 261 298 354 485 515 929 1400
2019-10-11 06:00 2.07 376 7170 (2010) 138 (1957) 569 192 235 261 298 354 485 515 929 1400
2019-10-11 05:30 2.10 389 7170 (2010) 138 (1957) 569 192 235 261 298 354 485 515 929 1400
2019-10-11 05:00 2.07 376 7170 (2010) 138 (1957) 569 192 235 261 298 354 485 515 929 1400
2019-10-11 04:30 2.15 413 7170 (2010) 138 (1957) 569 192 235 261 298 354 485 515 929 1400
2019-10-11 04:00 2.09 385 7170 (2010) 138 (1957) 569 192 235 261 298 354 485 515 929 1400
2019-10-11 03:30 2.06 371 7170 (2010) 138 (1957) 569 192 235 261 298 354 485 515 929 1400
2019-10-11 03:00 2.12 399 7170 (2010) 138 (1957) 569 192 235 261 298 354 485 515 929 1400
2019-10-11 02:30 2.11 394 7170 (2010) 138 (1957) 569 192 235 261 298 354 485 515 929 1400
2019-10-11 02:00 2.11 394 7170 (2010) 138 (1957) 569 192 235 261 298 354 485 515 929 1400
2019-10-11 01:30 2.11 394 7170 (2010) 138 (1957) 569 192 235 261 298 354 485 515 929 1400
2019-10-11 01:00 2.10 389 7170 (2010) 138 (1957) 569 192 235 261 298 354 485 515 929 1400
2019-10-11 00:30 2.11 394 7170 (2010) 138 (1957) 569 192 235 261 298 354 485 515 929 1400
2019-10-11 00:00 2.11 394 7170 (2010) 138 (1957) 569 192 235 261 298 354 485 515 929 1400
2019-10-10 23:30 2.11 394 15200 (2010) 138 (1957) 638 188 226 263 300 364 466 528 1030 1250
2019-10-10 23:00 2.11 394 15200 (2010) 138 (1957) 638 188 226 263 300 364 466 528 1030 1250
2019-10-10 22:30 2.11 394 15200 (2010) 138 (1957) 638 188 226 263 300 364 466 528 1030 1250
2019-10-10 22:00 2.11 394 15200 (2010) 138 (1957) 638 188 226 263 300 364 466 528 1030 1250
2019-10-10 21:30 2.09 385 15200 (2010) 138 (1957) 638 188 226 263 300 364 466 528 1030 1250
2019-10-10 21:00 2.11 394 15200 (2010) 138 (1957) 638 188 226 263 300 364 466 528 1030 1250
2019-10-10 20:30 2.11 394 15200 (2010) 138 (1957) 638 188 226 263 300 364 466 528 1030 1250
2019-10-10 20:00 2.11 394 15200 (2010) 138 (1957) 638 188 226 263 300 364 466 528 1030 1250
2019-10-10 19:30 2.11 394 15200 (2010) 138 (1957) 638 188 226 263 300 364 466 528 1030 1250
2019-10-10 19:00 2.11 394 15200 (2010) 138 (1957) 638 188 226 263 300 364 466 528 1030 1250
2019-10-10 18:30 2.11 394 15200 (2010) 138 (1957) 638 188 226 263 300 364 466 528 1030 1250
2019-10-10 18:00 2.10 389 15200 (2010) 138 (1957) 638 188 226 263 300 364 466 528 1030 1250
2019-10-10 17:30 2.08 380 15200 (2010) 138 (1957) 638 188 226 263 300 364 466 528 1030 1250
2019-10-10 17:00 2.09 385 15200 (2010) 138 (1957) 638 188 226 263 300 364 466 528 1030 1250
2019-10-10 16:30 2.03 358 15200 (2010) 138 (1957) 638 188 226 263 300 364 466 528 1030 1250
2019-10-10 16:00 2.06 371 15200 (2010) 138 (1957) 638 188 226 263 300 364 466 528 1030 1250
2019-10-10 15:30 2.07 376 15200 (2010) 138 (1957) 638 188 226 263 300 364 466 528 1030 1250
2019-10-10 15:00 2.06 371 15200 (2010) 138 (1957) 638 188 226 263 300 364 466 528 1030 1250
2019-10-10 14:30 2.07 376 15200 (2010) 138 (1957) 638 188 226 263 300 364 466 528 1030 1250
2019-10-10 14:00 2.07 376 15200 (2010) 138 (1957) 638 188 226 263 300 364 466 528 1030 1250
2019-10-10 13:30 2.07 376 15200 (2010) 138 (1957) 638 188 226 263 300 364 466 528 1030 1250
2019-10-10 13:00 2.02 353 15200 (2010) 138 (1957) 638 188 226 263 300 364 466 528 1030 1250
2019-10-10 12:30 1.98 335 15200 (2010) 138 (1957) 638 188 226 263 300 364 466 528 1030 1250
2019-10-10 12:00 2.05 366 15200 (2010) 138 (1957) 638 188 226 263 300 364 466 528 1030 1250
2019-10-10 11:30 2.06 371 15200 (2010) 138 (1957) 638 188 226 263 300 364 466 528 1030 1250
2019-10-10 11:00 2.06 371 15200 (2010) 138 (1957) 638 188 226 263 300 364 466 528 1030 1250
2019-10-10 10:30 2.06 371 15200 (2010) 138 (1957) 638 188 226 263 300 364 466 528 1030 1250
2019-10-10 10:00 2.06 371 15200 (2010) 138 (1957) 638 188 226 263 300 364 466 528 1030 1250
2019-10-10 09:30 2.01 349 15200 (2010) 138 (1957) 638 188 226 263 300 364 466 528 1030 1250
2019-10-10 09:00 2.07 376 15200 (2010) 138 (1957) 638 188 226 263 300 364 466 528 1030 1250
2019-10-10 08:30 2.06 371 15200 (2010) 138 (1957) 638 188 226 263 300 364 466 528 1030 1250
2019-10-10 08:00 2.07 376 15200 (2010) 138 (1957) 638 188 226 263 300 364 466 528 1030 1250
2019-10-10 07:30 2.06 371 15200 (2010) 138 (1957) 638 188 226 263 300 364 466 528 1030 1250
2019-10-10 07:00 2.07 376 15200 (2010) 138 (1957) 638 188 226 263 300 364 466 528 1030 1250
2019-10-10 06:30 2.07 376 15200 (2010) 138 (1957) 638 188 226 263 300 364 466 528 1030 1250
2019-10-10 06:00 2.07 376 15200 (2010) 138 (1957) 638 188 226 263 300 364 466 528 1030 1250
2019-10-10 05:30 2.07 376 15200 (2010) 138 (1957) 638 188 226 263 300 364 466 528 1030 1250
2019-10-10 05:00 2.07 376 15200 (2010) 138 (1957) 638 188 226 263 300 364 466 528 1030 1250
2019-10-10 04:30 2.07 376 15200 (2010) 138 (1957) 638 188 226 263 300 364 466 528 1030 1250
2019-10-10 04:00 2.06 371 15200 (2010) 138 (1957) 638 188 226 263 300 364 466 528 1030 1250
2019-10-10 03:30 2.07 376 15200 (2010) 138 (1957) 638 188 226 263 300 364 466 528 1030 1250
2019-10-10 03:00 2.07 376 15200 (2010) 138 (1957) 638 188 226 263 300 364 466 528 1030 1250
2019-10-10 02:30 2.07 376 15200 (2010) 138 (1957) 638 188 226 263 300 364 466 528 1030 1250
2019-10-10 02:00 2.06 371 15200 (2010) 138 (1957) 638 188 226 263 300 364 466 528 1030 1250
2019-10-10 01:30 2.07 376 15200 (2010) 138 (1957) 638 188 226 263 300 364 466 528 1030 1250
2019-10-10 01:00 2.07 376 15200 (2010) 138 (1957) 638 188 226 263 300 364 466 528 1030 1250
2019-10-10 00:30 2.07 376 15200 (2010) 138 (1957) 638 188 226 263 300 364 466 528 1030 1250
2019-10-10 00:00 2.07 376 15200 (2010) 138 (1957) 638 188 226 263 300 364 466 528 1030 1250
2019-10-09 23:30 2.07 376 8580 (2010) 138 (1957) 557 186 226 271 289 360 485 540 889 1220
2019-10-09 23:00 2.07 376 8580 (2010) 138 (1957) 557 186 226 271 289 360 485 540 889 1220
2019-10-09 22:30 2.07 376 8580 (2010) 138 (1957) 557 186 226 271 289 360 485 540 889 1220
2019-10-09 22:00 2.07 376 8580 (2010) 138 (1957) 557 186 226 271 289 360 485 540 889 1220
2019-10-09 21:30 2.07 376 8580 (2010) 138 (1957) 557 186 226 271 289 360 485 540 889 1220
2019-10-09 21:00 2.07 376 8580 (2010) 138 (1957) 557 186 226 271 289 360 485 540 889 1220
2019-10-09 20:30 2.07 376 8580 (2010) 138 (1957) 557 186 226 271 289 360 485 540 889 1220
2019-10-09 20:00 2.07 376 8580 (2010) 138 (1957) 557 186 226 271 289 360 485 540 889 1220
2019-10-09 19:30 2.07 376 8580 (2010) 138 (1957) 557 186 226 271 289 360 485 540 889 1220
2019-10-09 19:00 2.07 376 8580 (2010) 138 (1957) 557 186 226 271 289 360 485 540 889 1220
2019-10-09 18:30 2.07 376 8580 (2010) 138 (1957) 557 186 226 271 289 360 485 540 889 1220
2019-10-09 18:00 2.07 376 8580 (2010) 138 (1957) 557 186 226 271 289 360 485 540 889 1220
2019-10-09 17:30 2.07 376 8580 (2010) 138 (1957) 557 186 226 271 289 360 485 540 889 1220
2019-10-09 17:00 2.07 376 8580 (2010) 138 (1957) 557 186 226 271 289 360 485 540 889 1220
2019-10-09 16:30 2.08 380 8580 (2010) 138 (1957) 557 186 226 271 289 360 485 540 889 1220
2019-10-09 16:00 2.08 380 8580 (2010) 138 (1957) 557 186 226 271 289 360 485 540 889 1220
2019-10-09 15:30 2.08 380 8580 (2010) 138 (1957) 557 186 226 271 289 360 485 540 889 1220
2019-10-09 15:00 2.08 380 8580 (2010) 138 (1957) 557 186 226 271 289 360 485 540 889 1220
2019-10-09 14:30 2.08 380 8580 (2010) 138 (1957) 557 186 226 271 289 360 485 540 889 1220
2019-10-09 14:00 2.08 380 8580 (2010) 138 (1957) 557 186 226 271 289 360 485 540 889 1220
2019-10-09 13:30 2.08 380 8580 (2010) 138 (1957) 557 186 226 271 289 360 485 540 889 1220
2019-10-09 13:00 2.08 380 8580 (2010) 138 (1957) 557 186 226 271 289 360 485 540 889 1220
2019-10-09 12:30 2.08 380 8580 (2010) 138 (1957) 557 186 226 271 289 360 485 540 889 1220
2019-10-09 12:00 2.08 380 8580 (2010) 138 (1957) 557 186 226 271 289 360 485 540 889 1220
2019-10-09 11:30 2.07 376 8580 (2010) 138 (1957) 557 186 226 271 289 360 485 540 889 1220
2019-10-09 11:00 2.07 376 8580 (2010) 138 (1957) 557 186 226 271 289 360 485 540 889 1220
2019-10-09 10:30 2.07 376 8580 (2010) 138 (1957) 557 186 226 271 289 360 485 540 889 1220
2019-10-09 10:00 2.07 376 8580 (2010) 138 (1957) 557 186 226 271 289 360 485 540 889 1220
2019-10-09 09:30 2.07 376 8580 (2010) 138 (1957) 557 186 226 271 289 360 485 540 889 1220
2019-10-09 09:00 2.07 376 8580 (2010) 138 (1957) 557 186 226 271 289 360 485 540 889 1220
2019-10-09 08:30 2.07 376 8580 (2010) 138 (1957) 557 186 226 271 289 360 485 540 889 1220
2019-10-09 08:00 2.07 376 8580 (2010) 138 (1957) 557 186 226 271 289 360 485 540 889 1220
2019-10-09 07:30 2.07 376 8580 (2010) 138 (1957) 557 186 226 271 289 360 485 540 889 1220
2019-10-09 07:00 2.07 376 8580 (2010) 138 (1957) 557 186 226 271 289 360 485 540 889 1220
2019-10-09 06:30 2.07 376 8580 (2010) 138 (1957) 557 186 226 271 289 360 485 540 889 1220
2019-10-09 06:00 2.07 376 8580 (2010) 138 (1957) 557 186 226 271 289 360 485 540 889 1220
2019-10-09 05:30 2.07 376 8580 (2010) 138 (1957) 557 186 226 271 289 360 485 540 889 1220
2019-10-09 05:00 2.07 376 8580 (2010) 138 (1957) 557 186 226 271 289 360 485 540 889 1220
2019-10-09 04:30 2.07 376 8580 (2010) 138 (1957) 557 186 226 271 289 360 485 540 889 1220
2019-10-09 04:00 2.07 376 8580 (2010) 138 (1957) 557 186 226 271 289 360 485 540 889 1220
2019-10-09 03:30 2.07 376 8580 (2010) 138 (1957) 557 186 226 271 289 360 485 540 889 1220
2019-10-09 03:00 2.07 376 8580 (2010) 138 (1957) 557 186 226 271 289 360 485 540 889 1220
2019-10-09 02:30 2.07 376 8580 (2010) 138 (1957) 557 186 226 271 289 360 485 540 889 1220
2019-10-09 02:00 2.07 376 8580 (2010) 138 (1957) 557 186 226 271 289 360 485 540 889 1220
2019-10-09 01:30 2.07 376 8580 (2010) 138 (1957) 557 186 226 271 289 360 485 540 889 1220
2019-10-09 01:00 2.07 376 8580 (2010) 138 (1957) 557 186 226 271 289 360 485 540 889 1220
2019-10-09 00:30 2.07 376 8580 (2010) 138 (1957) 557 186 226 271 289 360 485 540 889 1220
2019-10-09 00:00 2.07 376 8580 (2010) 138 (1957) 557 186 226 271 289 360 485 540 889 1220
2019-10-08 23:30 2.07 376 4570 (1950) 140 (1957) 505 186 228 267 276 365 492 580 871 1360
2019-10-08 23:00 2.07 376 4570 (1950) 140 (1957) 505 186 228 267 276 365 492 580 871 1360
2019-10-08 22:30 2.07 376 4570 (1950) 140 (1957) 505 186 228 267 276 365 492 580 871 1360
2019-10-08 22:00 2.07 376 4570 (1950) 140 (1957) 505 186 228 267 276 365 492 580 871 1360
2019-10-08 21:30 2.07 376 4570 (1950) 140 (1957) 505 186 228 267 276 365 492 580 871 1360
2019-10-08 21:00 2.06 371 4570 (1950) 140 (1957) 505 186 228 267 276 365 492 580 871 1360
2019-10-08 20:30 2.07 376 4570 (1950) 140 (1957) 505 186 228 267 276 365 492 580 871 1360
2019-10-08 20:00 2.07 376 4570 (1950) 140 (1957) 505 186 228 267 276 365 492 580 871 1360
2019-10-08 19:30 2.07 376 4570 (1950) 140 (1957) 505 186 228 267 276 365 492 580 871 1360
2019-10-08 19:00 2.07 376 4570 (1950) 140 (1957) 505 186 228 267 276 365 492 580 871 1360
2019-10-08 18:30 2.08 380 4570 (1950) 140 (1957) 505 186 228 267 276 365 492 580 871 1360
2019-10-08 18:00 2.08 380 4570 (1950) 140 (1957) 505 186 228 267 276 365 492 580 871 1360
2019-10-08 17:30 2.08 380 4570 (1950) 140 (1957) 505 186 228 267 276 365 492 580 871 1360
2019-10-08 17:00 2.08 380 4570 (1950) 140 (1957) 505 186 228 267 276 365 492 580 871 1360
2019-10-08 16:30 2.07 376 4570 (1950) 140 (1957) 505 186 228 267 276 365 492 580 871 1360
2019-10-08 16:00 2.08 380 4570 (1950) 140 (1957) 505 186 228 267 276 365 492 580 871 1360
2019-10-08 15:30 2.08 380 4570 (1950) 140 (1957) 505 186 228 267 276 365 492 580 871 1360
2019-10-08 15:00 2.08 380 4570 (1950) 140 (1957) 505 186 228 267 276 365 492 580 871 1360
2019-10-08 14:30 2.08 380 4570 (1950) 140 (1957) 505 186 228 267 276 365 492 580 871 1360
2019-10-08 14:00 2.08 380 4570 (1950) 140 (1957) 505 186 228 267 276 365 492 580 871 1360
2019-10-08 13:30 2.08 380 4570 (1950) 140 (1957) 505 186 228 267 276 365 492 580 871 1360
2019-10-08 13:00 2.07 376 4570 (1950) 140 (1957) 505 186 228 267 276 365 492 580 871 1360
2019-10-08 12:30 2.08 380 4570 (1950) 140 (1957) 505 186 228 267 276 365 492 580 871 1360
2019-10-08 12:00 2.07 376 4570 (1950) 140 (1957) 505 186 228 267 276 365 492 580 871 1360
2019-10-08 11:30 2.08 380 4570 (1950) 140 (1957) 505 186 228 267 276 365 492 580 871 1360
2019-10-08 11:00 2.08 380 4570 (1950) 140 (1957) 505 186 228 267 276 365 492 580 871 1360
2019-10-08 10:30 2.08 380 4570 (1950) 140 (1957) 505 186 228 267 276 365 492 580 871 1360
2019-10-08 10:00 2.07 376 4570 (1950) 140 (1957) 505 186 228 267 276 365 492 580 871 1360
2019-10-08 09:30 2.07 376 4570 (1950) 140 (1957) 505 186 228 267 276 365 492 580 871 1360
2019-10-08 09:00 2.07 376 4570 (1950) 140 (1957) 505 186 228 267 276 365 492 580 871 1360
2019-10-08 08:30 2.07 376 4570 (1950) 140 (1957) 505 186 228 267 276 365 492 580 871 1360
2019-10-08 08:00 2.07 376 4570 (1950) 140 (1957) 505 186 228 267 276 365 492 580 871 1360
2019-10-08 07:30 2.07 376 4570 (1950) 140 (1957) 505 186 228 267 276 365 492 580 871 1360
2019-10-08 07:00 2.07 376 4570 (1950) 140 (1957) 505 186 228 267 276 365 492 580 871 1360
2019-10-08 06:30 2.07 376 4570 (1950) 140 (1957) 505 186 228 267 276 365 492 580 871 1360
2019-10-08 06:00 2.07 376 4570 (1950) 140 (1957) 505 186 228 267 276 365 492 580 871 1360
2019-10-08 05:30 2.07 376 4570 (1950) 140 (1957) 505 186 228 267 276 365 492 580 871 1360
2019-10-08 05:00 2.07 376 4570 (1950) 140 (1957) 505 186 228 267 276 365 492 580 871 1360
2019-10-08 04:30 2.07 376 4570 (1950) 140 (1957) 505 186 228 267 276 365 492 580 871 1360
2019-10-08 04:00 2.07 376 4570 (1950) 140 (1957) 505 186 228 267 276 365 492 580 871 1360
2019-10-08 03:30 2.07 376 4570 (1950) 140 (1957) 505 186 228 267 276 365 492 580 871 1360
2019-10-08 03:00 2.07 376 4570 (1950) 140 (1957) 505 186 228 267 276 365 492 580 871 1360
2019-10-08 02:30 2.07 376 4570 (1950) 140 (1957) 505 186 228 267 276 365 492 580 871 1360
2019-10-08 02:00 2.07 376 4570 (1950) 140 (1957) 505 186 228 267 276 365 492 580 871 1360
2019-10-08 01:30 2.07 376 4570 (1950) 140 (1957) 505 186 228 267 276 365 492 580 871 1360
2019-10-08 01:00 2.07 376 4570 (1950) 140 (1957) 505 186 228 267 276 365 492 580 871 1360
2019-10-08 00:30 2.07 376 4570 (1950) 140 (1957) 505 186 228 267 276 365 492 580 871 1360
2019-10-08 00:00 2.08 380 4570 (1950) 140 (1957) 505 186 228 267 276 365 492 580 871 1360
2019-10-07 23:30 2.07 376 12400 (1950) 140 (1957) 598 189 217 267 275 367 487 563 920 1420
2019-10-07 23:00 2.08 380 12400 (1950) 140 (1957) 598 189 217 267 275 367 487 563 920 1420
2019-10-07 22:30 2.08 380 12400 (1950) 140 (1957) 598 189 217 267 275 367 487 563 920 1420
2019-10-07 22:00 2.07 376 12400 (1950) 140 (1957) 598 189 217 267 275 367 487 563 920 1420
2019-10-07 21:30 2.08 380 12400 (1950) 140 (1957) 598 189 217 267 275 367 487 563 920 1420
2019-10-07 21:00 2.08 380 12400 (1950) 140 (1957) 598 189 217 267 275 367 487 563 920 1420
2019-10-07 20:30 2.08 380 12400 (1950) 140 (1957) 598 189 217 267 275 367 487 563 920 1420
2019-10-07 20:00 2.08 380 12400 (1950) 140 (1957) 598 189 217 267 275 367 487 563 920 1420
2019-10-07 19:30 2.08 380 12400 (1950) 140 (1957) 598 189 217 267 275 367 487 563 920 1420
2019-10-07 19:00 2.08 380 12400 (1950) 140 (1957) 598 189 217 267 275 367 487 563 920 1420
2019-10-07 18:30 2.08 380 12400 (1950) 140 (1957) 598 189 217 267 275 367 487 563 920 1420
2019-10-07 18:00 2.08 380 12400 (1950) 140 (1957) 598 189 217 267 275 367 487 563 920 1420
2019-10-07 17:30 2.08 380 12400 (1950) 140 (1957) 598 189 217 267 275 367 487 563 920 1420
2019-10-07 17:00 2.08 380 12400 (1950) 140 (1957) 598 189 217 267 275 367 487 563 920 1420
2019-10-07 16:30 2.06 371 12400 (1950) 140 (1957) 598 189 217 267 275 367 487 563 920 1420
2019-10-07 16:00 2.04 362 12400 (1950) 140 (1957) 598 189 217 267 275 367 487 563 920 1420
2019-10-07 15:30 2.02 353 12400 (1950) 140 (1957) 598 189 217 267 275 367 487 563 920 1420
2019-10-07 15:00 2.04 362 12400 (1950) 140 (1957) 598 189 217 267 275 367 487 563 920 1420
2019-10-07 14:30 2.09 385 12400 (1950) 140 (1957) 598 189 217 267 275 367 487 563 920 1420
2019-10-07 14:00 2.02 353 12400 (1950) 140 (1957) 598 189 217 267 275 367 487 563 920 1420
2019-10-07 13:30 1.99 340 12400 (1950) 140 (1957) 598 189 217 267 275 367 487 563 920 1420
2019-10-07 13:00 2.03 358 12400 (1950) 140 (1957) 598 189 217 267 275 367 487 563 920 1420
2019-10-07 12:30 2.00 344 12400 (1950) 140 (1957) 598 189 217 267 275 367 487 563 920 1420
2019-10-07 12:00 2.07 376 12400 (1950) 140 (1957) 598 189 217 267 275 367 487 563 920 1420
2019-10-07 11:30 2.01 349 12400 (1950) 140 (1957) 598 189 217 267 275 367 487 563 920 1420
2019-10-07 11:00 2.08 380 12400 (1950) 140 (1957) 598 189 217 267 275 367 487 563 920 1420
2019-10-07 10:30 2.08 380 12400 (1950) 140 (1957) 598 189 217 267 275 367 487 563 920 1420
2019-10-07 10:00 2.08 380 12400 (1950) 140 (1957) 598 189 217 267 275 367 487 563 920 1420
2019-10-07 09:30 2.08 380 12400 (1950) 140 (1957) 598 189 217 267 275 367 487 563 920 1420
2019-10-07 09:00 2.08 380 12400 (1950) 140 (1957) 598 189 217 267 275 367 487 563 920 1420
2019-10-07 08:30 2.08 380 12400 (1950) 140 (1957) 598 189 217 267 275 367 487 563 920 1420
2019-10-07 08:00 2.08 380 12400 (1950) 140 (1957) 598 189 217 267 275 367 487 563 920 1420
2019-10-07 07:30 2.08 380 12400 (1950) 140 (1957) 598 189 217 267 275 367 487 563 920 1420
2019-10-07 07:00 2.08 380 12400 (1950) 140 (1957) 598 189 217 267 275 367 487 563 920 1420
2019-10-07 06:30 2.08 380 12400 (1950) 140 (1957) 598 189 217 267 275 367 487 563 920 1420
2019-10-07 06:00 2.08 380 12400 (1950) 140 (1957) 598 189 217 267 275 367 487 563 920 1420
2019-10-07 05:30 2.09 385 12400 (1950) 140 (1957) 598 189 217 267 275 367 487 563 920 1420
2019-10-07 05:00 2.08 380 12400 (1950) 140 (1957) 598 189 217 267 275 367 487 563 920 1420
2019-10-07 04:30 2.09 385 12400 (1950) 140 (1957) 598 189 217 267 275 367 487 563 920 1420
2019-10-07 04:00 2.09 385 12400 (1950) 140 (1957) 598 189 217 267 275 367 487 563 920 1420
2019-10-07 03:30 2.09 385 12400 (1950) 140 (1957) 598 189 217 267 275 367 487 563 920 1420
2019-10-07 03:00 2.09 385 12400 (1950) 140 (1957) 598 189 217 267 275 367 487 563 920 1420
2019-10-07 02:30 2.09 385 12400 (1950) 140 (1957) 598 189 217 267 275 367 487 563 920 1420
2019-10-07 02:00 2.09 385 12400 (1950) 140 (1957) 598 189 217 267 275 367 487 563 920 1420
2019-10-07 01:30 2.09 385 12400 (1950) 140 (1957) 598 189 217 267 275 367 487 563 920 1420
2019-10-07 01:00 2.09 385 12400 (1950) 140 (1957) 598 189 217 267 275 367 487 563 920 1420
2019-10-07 00:30 2.09 385 12400 (1950) 140 (1957) 598 189 217 267 275 367 487 563 920 1420
2019-10-07 00:00 2.09 385 12400 (1950) 140 (1957) 598 189 217 267 275 367 487 563 920 1420

A total of 341 rows are displayed for years 1922 through 2019.

Trips for Meramec River (Missouri), Sullivan (07014500)

DateStartEndDistanceConditionDischargeHeightFishingDetails
Click for details2017-08-21 Red Horse MO 47 Total trip distance: 4.5 miles4.5 Good 543 3.73 None NoneNone Amburn, Andrea
Edmond, Alex
Edmond, Brian
Edmond, Julian
Grote, Camryn
Grote, Chase
Grote, Hannah
Larsen, Chris
Larsen, Lisa
Amburn, Andrea; Edmond, Alex; Edmond, Brian; Edmond, Julian; Grote, Camryn; Grote, Chase; Grote, Hannah; Larsen, Chris; Larsen, Lisa
We floated this section of the river in order to gain access to a good gravel bar to view the total solar eclipse. The water level was good and the water itself was mostly clear and cool. We stopped at N38.30272237 W90.90611617 to view the eclipse.We floated this section of the river in order to gain access to a good gravel bar to view the total solar eclipse. The water level was good and the water itself was mostly clear and cool. We stopped at N38.30272237 W90.90611617 to view the eclipse. USGS Gauge Data:
Sullivan (07014500)
Discharge: 543
Height: 3.73
<b>USGS Gauge Data:</b></br />Sullivan (07014500)<br />Discharge: 543<br />Height: 3.73
Source: EdmondSource: Edmond
Click for details2002-07-27 Scott's Ford Indian Springs Total trip distance: 5.9 miles5.9 Good 483 2.94 None NoneNone Brown, Les
Edmond, Brian
Grote, Bob
Wendell, David
Brown, Les; Edmond, Brian; Grote, Bob; Wendell, David
No notes for this trip<i>No notes for this trip</i> USGS Gauge Data:
Sullivan (07014500)
Discharge: 483
Height: 2.94
<b>USGS Gauge Data:</b></br />Sullivan (07014500)<br />Discharge: 483<br />Height: 2.94
Source: EdmondSource: Edmond
Click for details2006-06-24 Bluffs Ozark Outdoors Total trip distance: 9.0 miles9.0 Good 341 2.32 None NoneNone Alderson, Daniel
Blackford, Alicia
Blackford, Eric
Edmond, Brent
Edmond, Brian
Grote, Bob
Grote, Brandy
Ince, Brianne
Ince, Jerri Ann
Ince, Seth
Perkins, Jenna
Smith, Andy
Storts, Amy Jo
Storts, Todd
Alderson, Daniel; Blackford, Alicia; Blackford, Eric; Edmond, Brent; Edmond, Brian; Grote, Bob; Grote, Brandy; Ince, Brianne; Ince, Jerri Ann; Ince, Seth; Perkins, Jenna; Smith, Andy; Storts, Amy Jo; Storts, Todd
No notes for this trip<i>No notes for this trip</i> USGS Gauge Data:
Sullivan (07014500)
Discharge: 341
Height: 2.32
<b>USGS Gauge Data:</b></br />Sullivan (07014500)<br />Discharge: 341<br />Height: 2.32
Source: EdmondSource: Edmond
Click for details2005-06-25 Scott's Ford Indian Springs Total trip distance: 5.9 miles5.9 Good 294 2.01 None NoneNone Edmond, Brian
Grote, Bob
Grote, Brandy
Ince, Brianne
Ince, Seth
Edmond, Brian; Grote, Bob; Grote, Brandy; Ince, Brianne; Ince, Seth
No notes for this trip<i>No notes for this trip</i> USGS Gauge Data:
Sullivan (07014500)
Discharge: 294
Height: 2.01
<b>USGS Gauge Data:</b></br />Sullivan (07014500)<br />Discharge: 294<br />Height: 2.01
Source: EdmondSource: Edmond
Click for details2012-08-25 Huzzah Creek Ozark Outdoors Total trip distance: 3.8 miles2.5 Low 238 2.00 None NoneNone Alderson, Daniel
Caldwell, Justin
Edmond, Brian
Filson, Nathan
Ince, Seth
Luebrecht, Michael
Luebrecht, Ryan
Scherder, Travis
Smith, Andy
Alderson, Daniel; Caldwell, Justin; Edmond, Brian; Filson, Nathan; Ince, Seth; Luebrecht, Michael; Luebrecht, Ryan; Scherder, Travis; Smith, Andy
The Bull Float Trip. Boats were often packed together so tightly, they were touching. Although low, the river was still floatable and we didn't drag too many times.The Bull Float Trip.  Boats were often packed together so tightly, they were touching.  Although low, the river was still floatable and we didn't drag too many times. USGS Gauge Data:
Sullivan (07014500)
Discharge: 238
Height: 2.00
<b>USGS Gauge Data:</b></br />Sullivan (07014500)<br />Discharge: 238<br />Height: 2.00
Source: EdmondSource: Edmond

A total of 5 rows are displayed.

Trip Summary for Meramec River (Missouri), Sullivan (07014500)

Miles27.8
Trips5
People29
Dates5
Years5
Months3
Rows5
Sources1

Condition Descriptions

Fishing Conditions

Fish Species

Notes

Classic Trip List

The classic River Trips application is still available for use. It is updated with the new system using a data retrofit. It is no longer maintained. The original River Trips application is no longer updated (as of 1 Dec 2016) but can be checked for errors or for the condition of the data before it was converted to the new system.